Time;durP1;ratioP1;P1;durP2;ratioP2;P2;SDS_P1;SDS_P2;PMS_P1;PMS_P2;Temp;Humidity;BMP_temperature;BMP_pressure;BME280_temperature;BME280_humidity;BME280_pressure;Samples;Min_cycle;Max_cycle;Signal;HPM_P1;HPM_P2
2023/12/02 00:02:14;;;;;;;;;;;;;;;15.89;47.62;100114.19;4999670;28;1096;-52
2023/12/02 00:04:39;;;;;;;;;;;;;;;16.07;47.60;100109.94;4980880;28;1048;-54
2023/12/02 00:07:05;;;;;;;;;;;;;;;16.47;48.68;100113.44;4992135;28;1076;-51
2023/12/02 00:09:30;;;;;;;;;;;;;;;16.00;48.06;100104.78;4996474;28;1032;-51
2023/12/02 00:11:56;;;;;;;;;;;;;;;15.84;47.31;100101.34;4999103;28;1136;-51
2023/12/02 00:14:21;;;;;;;;;;;;;;;15.77;47.22;100105.47;4986254;28;1911;-54
2023/12/02 00:16:47;;;;;;;;;;;;;;;16.55;48.23;100110.06;4987733;28;1223;-54
2023/12/02 00:19:12;;;;;;;;;;;;;;;16.04;48.05;100103.09;4985373;28;1061;-49
2023/12/02 00:21:38;;;;;;;;;;;;;;;16.75;48.21;100103.53;4995155;28;1242;-52
2023/12/02 00:24:04;;;;;;;;;;;;;;;16.38;48.99;100091.31;4994109;28;1064;-54
2023/12/02 00:26:30;;;;;;;;;;;;;;;16.03;48.10;100096.00;4991302;28;1056;-53
2023/12/02 00:28:57;;;;;;;;;;;;;;;16.08;48.14;100087.72;4986264;28;1163;-51
2023/12/02 00:31:23;;;;;;;;;;;;;;;16.74;48.56;100101.91;4986978;28;1151;-52
2023/12/02 00:33:48;;;;;;;;;;;;;;;16.17;48.70;100085.19;4982288;28;1052;-54
2023/12/02 00:36:14;;;;;;;;;;;;;;;15.95;47.69;100096.59;4979425;28;1914;-53
2023/12/02 00:38:39;;;;;;;;;;;;;;;16.90;48.24;100088.03;4985093;28;1211;-52
2023/12/02 00:41:07;;;;;;;;;;;;;;;16.40;48.84;100091.81;4999240;28;1107;-53
2023/12/02 00:43:33;;;;;;;;;;;;;;;16.05;47.82;100084.75;4993115;28;1075;-50
2023/12/02 00:45:58;;;;;;;;;;;;;;;15.96;46.87;100076.28;4981907;28;1038;-52
2023/12/02 00:48:24;;;;;;;;;;;;;;;16.83;48.35;100071.91;4997638;28;1147;-53
2023/12/02 00:50:49;;;;;;;;;;;;;;;16.21;48.53;100082.69;4987207;28;1059;-53
2023/12/02 00:53:15;;;;;;;;;;;;;;;15.96;47.56;100092.75;4997389;28;1053;-52
2023/12/02 00:55:40;;;;;;;;;;;;;;;15.78;47.08;100094.25;4986879;28;1906;-49
2023/12/02 00:58:06;;;;;;;;;;;;;;;16.74;48.36;100081.88;4992351;28;1068;-53
2023/12/02 01:00:31;;;;;;;;;;;;;;;16.26;48.51;100085.38;4987619;28;1220;-52
2023/12/02 01:02:57;;;;;;;;;;;;;;;15.98;47.73;100074.09;4996973;28;1159;-52
2023/12/02 01:05:22;;;;;;;;;;;;;;;15.83;46.92;100079.69;4998441;28;1127;-53
2023/12/02 01:07:48;;;;;;;;;;;;;;;15.81;46.41;100079.16;4993508;28;1043;-51
2023/12/02 01:10:14;;;;;;;;;;;;;;;16.74;48.16;100085.44;4980511;28;1222;-53
2023/12/02 01:12:40;;;;;;;;;;;;;;;16.19;48.70;100080.22;4992196;28;1101;-52
2023/12/02 01:15:06;;;;;;;;;;;;;;;16.02;47.86;100075.16;4978859;28;1906;-52
2023/12/02 01:17:31;;;;;;;;;;;;;;;15.83;47.41;100080.50;4983596;28;1160;-51
2023/12/02 01:19:57;;;;;;;;;;;;;;;15.68;46.83;100080.59;4997355;28;1085;-53
2023/12/02 01:22:22;;;;;;;;;;;;;;;16.64;48.28;100069.09;4988446;28;1092;-49
2023/12/02 01:24:48;;;;;;;;;;;;;;;15.99;48.64;100073.00;4979018;28;1137;-54
2023/12/02 01:27:13;;;;;;;;;;;;;;;15.91;47.69;100068.13;4983223;28;997;-52
2023/12/02 01:29:39;;;;;;;;;;;;;;;17.17;48.01;100065.47;4997875;28;1472;-52
2023/12/02 01:32:05;;;;;;;;;;;;;;;16.32;48.90;100062.25;4997332;28;1020;-50
2023/12/02 01:34:30;;;;;;;;;;;;;;;16.02;48.07;100058.72;4997047;28;1977;-53
2023/12/02 01:36:56;;;;;;;;;;;;;;;15.92;46.98;100061.50;4997584;28;1136;-51
2023/12/02 01:39:21;;;;;;;;;;;;;;;15.79;46.39;100059.41;4987359;28;1246;-53
2023/12/02 01:41:47;;;;;;;;;;;;;;;16.47;47.53;100058.56;4981735;28;1061;-53
2023/12/02 01:44:12;;;;;;;;;;;;;;;16.35;48.56;100056.19;4997505;28;1084;-52
2023/12/02 01:46:38;;;;;;;;;;;;;;;15.94;47.75;100045.59;4990637;28;1059;-51
2023/12/02 01:49:03;;;;;;;;;;;;;;;16.04;47.91;100040.03;4987407;28;1163;-50
2023/12/02 01:51:29;;;;;;;;;;;;;;;16.61;48.29;100042.22;4994750;28;1188;-50
2023/12/02 01:53:55;;;;;;;;;;;;;;;16.15;47.83;100045.44;4997539;28;1056;-54
2023/12/02 01:56:20;;;;;;;;;;;;;;;16.03;47.49;100043.91;4996269;28;1910;-51
2023/12/02 01:58:49;;;;;;;;;;;;;;;16.62;48.57;100032.88;4986751;28;912;-54
2023/12/02 02:01:14;;;;;;;;;;;;;;;16.05;48.50;100025.22;5006018;28;1208;-53
2023/12/02 02:03:40;;;;;;;;;;;;;;;15.97;47.11;100017.59;4989293;28;1273;-53
2023/12/02 02:06:08;;;;;;;;;;;;;;;16.99;48.34;100016.81;4978736;28;1147;-50
2023/12/02 02:08:33;;;;;;;;;;;;;;;16.28;48.85;100019.25;4978164;28;1139;-50
2023/12/02 02:10:59;;;;;;;;;;;;;;;16.10;47.79;100013.38;4983127;28;1109;-52
2023/12/02 02:13:25;;;;;;;;;;;;;;;15.90;47.06;100017.94;4985234;28;1238;-50
2023/12/02 02:15:51;;;;;;;;;;;;;;;15.83;46.45;100011.16;4980027;28;1973;-51
2023/12/02 02:18:16;;;;;;;;;;;;;;;16.72;48.10;100004.50;4977629;28;1231;-52
2023/12/02 02:20:42;;;;;;;;;;;;;;;16.06;48.59;100004.91;4987368;28;1421;-50
2023/12/02 02:23:08;;;;;;;;;;;;;;;15.89;47.64;99994.38;4971442;28;1052;-51
2023/12/02 02:25:34;;;;;;;;;;;;;;;16.48;48.26;99988.03;4979443;28;1152;-49
2023/12/02 02:27:59;;;;;;;;;;;;;;;16.24;48.30;99984.16;4980386;28;1100;-47
2023/12/02 02:30:25;;;;;;;;;;;;;;;15.96;47.76;99987.72;4968534;28;1441;-52
2023/12/02 02:32:50;;;;;;;;;;;;;;;16.24;47.90;99983.34;4968765;28;1083;-53
2023/12/02 02:35:16;;;;;;;;;;;;;;;16.44;48.68;99993.28;4976137;28;1910;-53
2023/12/02 02:37:41;;;;;;;;;;;;;;;16.11;47.78;99987.59;4977000;28;1329;-51
2023/12/02 02:40:08;;;;;;;;;;;;;;;15.89;47.27;99993.56;4980617;28;1016;-50
2023/12/02 02:42:33;;;;;;;;;;;;;;;15.80;46.44;99990.63;4981736;28;1266;-49
2023/12/02 02:44:59;;;;;;;;;;;;;;;16.52;47.98;99998.13;4997293;28;1071;-53
2023/12/02 02:47:24;;;;;;;;;;;;;;;16.28;48.47;99989.06;4983907;28;1120;-52
2023/12/02 02:49:50;;;;;;;;;;;;;;;16.01;47.69;99996.72;4977091;28;868;-50
2023/12/02 02:52:15;;;;;;;;;;;;;;;16.99;48.10;99995.66;4989817;28;1173;-52
2023/12/02 02:54:41;;;;;;;;;;;;;;;16.30;48.38;99998.66;4976366;28;1898;-50
2023/12/02 02:57:06;;;;;;;;;;;;;;;16.05;47.44;100008.75;4984907;28;1426;-50
2023/12/02 02:59:32;;;;;;;;;;;;;;;15.89;47.16;100015.47;4980650;28;1111;-52
2023/12/02 03:01:57;;;;;;;;;;;;;;;15.78;46.59;100016.66;4980891;28;937;-52
2023/12/02 03:04:23;;;;;;;;;;;;;;;15.78;46.27;100013.91;4977104;28;1169;-50
2023/12/02 03:06:48;;;;;;;;;;;;;;;16.53;48.12;100013.47;4990188;28;1067;-53
2023/12/02 03:09:14;;;;;;;;;;;;;;;16.19;48.66;100027.28;4989764;28;1104;-50
2023/12/02 03:11:40;;;;;;;;;;;;;;;17.51;47.98;100025.16;4976485;28;1479;-54
2023/12/02 03:14:05;;;;;;;;;;;;;;;16.81;49.22;100021.13;4966725;28;1088;-52
2023/12/02 03:16:31;;;;;;;;;;;;;;;16.47;48.55;100033.06;4972689;28;1981;-52
2023/12/02 03:18:57;;;;;;;;;;;;;;;16.16;47.77;100036.09;4972882;28;997;-50
2023/12/02 03:21:22;;;;;;;;;;;;;;;16.06;46.86;100035.09;4995411;28;1282;-47
2023/12/02 03:23:48;;;;;;;;;;;;;;;15.91;46.51;100018.78;4994543;28;1052;-51
2023/12/02 03:26:14;;;;;;;;;;;;;;;15.82;45.96;100034.19;4983235;28;1232;-50
2023/12/02 03:28:39;;;;;;;;;;;;;;;16.32;47.41;100039.50;4978137;28;1208;-51
2023/12/02 03:31:05;;;;;;;;;;;;;;;16.36;48.33;100035.88;4981898;28;1538;-50
2023/12/02 03:33:30;;;;;;;;;;;;;;;16.03;47.61;100035.66;4996040;28;1495;-48
2023/12/02 03:35:56;;;;;;;;;;;;;;;15.83;47.27;100025.66;4982317;28;1911;-51
2023/12/02 03:38:21;;;;;;;;;;;;;;;15.72;46.48;100022.19;4981047;28;1183;-49
2023/12/02 03:40:47;;;;;;;;;;;;;;;16.95;47.89;100019.31;4986584;28;1156;-52
2023/12/02 03:43:12;;;;;;;;;;;;;;;16.30;48.40;100017.84;4984687;28;1199;-52
2023/12/02 03:45:38;;;;;;;;;;;;;;;15.97;47.60;100023.09;4999865;28;1111;-50
2023/12/02 03:48:03;;;;;;;;;;;;;;;16.13;47.75;100020.22;4987457;28;1111;-51
2023/12/02 03:50:29;;;;;;;;;;;;;;;16.92;48.58;100007.00;4999989;28;1132;-50
2023/12/02 03:52:55;;;;;;;;;;;;;;;16.20;48.71;100009.72;4986585;28;1131;-48
2023/12/02 03:55:20;;;;;;;;;;;;;;;16.37;47.87;100007.34;4990729;28;1902;-50
2023/12/02 03:57:46;;;;;;;;;;;;;;;16.74;48.42;100003.06;4993008;28;1081;-50
2023/12/02 04:00:11;;;;;;;;;;;;;;;16.71;49.19;100003.66;4985486;28;1168;-49
2023/12/02 04:02:38;;;;;;;;;;;;;;;16.28;48.49;99998.09;4995213;28;1215;-51
2023/12/02 04:05:06;;;;;;;;;;;;;;;16.08;47.44;100008.19;4999489;28;1040;-52
2023/12/02 04:07:31;;;;;;;;;;;;;;;15.94;46.96;100004.47;4999094;28;1056;-51
2023/12/02 04:09:57;;;;;;;;;;;;;;;15.88;46.18;100011.13;4988823;28;1103;-52
2023/12/02 04:12:22;;;;;;;;;;;;;;;16.53;48.20;100001.69;4984459;28;1164;-51
2023/12/02 04:14:48;;;;;;;;;;;;;;;16.05;48.16;100005.22;4979914;28;1977;-51
2023/12/02 04:17:13;;;;;;;;;;;;;;;16.28;48.30;100002.78;4985618;28;1098;-50
2023/12/02 04:19:39;;;;;;;;;;;;;;;16.35;48.74;100004.06;4974330;28;1025;-51
2023/12/02 04:22:04;;;;;;;;;;;;;;;16.05;48.03;100010.69;4989515;28;1089;-52
2023/12/02 04:24:30;;;;;;;;;;;;;;;15.93;47.92;100000.09;4982957;28;893;-52
2023/12/02 04:26:55;;;;;;;;;;;;;;;17.03;48.31;99998.63;4992913;28;1120;-54
2023/12/02 04:29:21;;;;;;;;;;;;;;;16.23;48.73;99998.19;4977116;28;1081;-54
2023/12/02 04:31:46;;;;;;;;;;;;;;;16.07;47.86;100012.06;4983315;28;1108;-51
2023/12/02 04:34:12;;;;;;;;;;;;;;;15.86;47.17;100010.56;4982799;28;1326;-55
2023/12/02 04:36:37;;;;;;;;;;;;;;;15.80;46.72;100014.47;4984962;28;1965;-52
2023/12/02 04:39:04;;;;;;;;;;;;;;;17.01;48.08;100004.44;4986861;28;1346;-55
2023/12/02 04:41:29;;;;;;;;;;;;;;;16.18;49.02;100020.16;4993774;28;1223;-54
2023/12/02 04:43:55;;;;;;;;;;;;;;;16.07;47.65;100020.28;4993121;28;1357;-48
2023/12/02 04:46:20;;;;;;;;;;;;;;;15.86;47.00;100019.63;4983225;28;1318;-54
2023/12/02 04:48:46;;;;;;;;;;;;;;;16.99;48.05;100003.91;4993063;28;867;-54
2023/12/02 04:51:11;;;;;;;;;;;;;;;16.24;48.68;100016.25;4979301;28;1220;-53
2023/12/02 04:53:37;;;;;;;;;;;;;;;16.03;47.92;100019.22;4998053;28;1032;-54
2023/12/02 04:56:03;;;;;;;;;;;;;;;15.95;46.89;100011.59;4979534;28;1902;-54
2023/12/02 04:58:28;;;;;;;;;;;;;;;15.84;46.61;100007.31;4991342;28;1139;-52
2023/12/02 05:00:54;;;;;;;;;;;;;;;16.85;48.40;100002.97;4979028;28;1123;-54
2023/12/02 05:03:19;;;;;;;;;;;;;;;16.12;48.81;100002.94;4978821;28;1227;-54
2023/12/02 05:05:45;;;;;;;;;;;;;;;15.98;47.52;99996.50;4984949;28;1227;-53
2023/12/02 05:08:11;;;;;;;;;;;;;;;16.84;48.47;99996.63;4998184;28;1135;-53
2023/12/02 05:10:36;;;;;;;;;;;;;;;16.17;48.84;100000.16;4985236;28;1126;-54
2023/12/02 05:13:02;;;;;;;;;;;;;;;15.96;47.85;99996.78;4981046;28;904;-53
2023/12/02 05:15:27;;;;;;;;;;;;;;;16.05;47.54;99997.78;4997216;28;1905;-51
2023/12/02 05:17:54;;;;;;;;;;;;;;;16.65;48.88;99993.88;4998565;28;1104;-54
2023/12/02 05:20:20;;;;;;;;;;;;;;;16.12;48.61;99982.91;4992729;28;1104;-52
2023/12/02 05:22:46;;;;;;;;;;;;;;;15.93;47.92;99982.84;4979138;28;1171;-53
2023/12/02 05:25:11;;;;;;;;;;;;;;;16.34;48.17;99979.66;4984747;28;1059;-54
2023/12/02 05:27:37;;;;;;;;;;;;;;;16.46;49.02;99988.31;4986480;28;1074;-53
2023/12/02 05:30:04;;;;;;;;;;;;;;;16.93;48.08;99977.63;4996857;28;1029;-53
2023/12/02 05:32:29;;;;;;;;;;;;;;;16.36;49.67;99983.75;4987844;28;1223;-55
2023/12/02 05:34:55;;;;;;;;;;;;;;;16.10;50.22;99972.22;4991698;28;1906;-56
2023/12/02 05:37:20;;;;;;;;;;;;;;;15.92;50.52;99976.50;4989006;28;953;-56
2023/12/02 05:39:46;;;;;;;;;;;;;;;15.83;50.87;99978.25;4979393;28;1052;-54
2023/12/02 05:42:12;;;;;;;;;;;;;;;16.51;49.58;99976.44;4990508;28;1071;-56
2023/12/02 05:44:40;;;;;;;;;;;;;;;16.76;48.53;99962.44;4992557;28;1164;-57
2023/12/02 05:47:05;;;;;;;;;;;;;;;16.15;50.42;99968.63;4998156;28;1047;-55
2023/12/02 05:49:31;;;;;;;;;;;;;;;15.92;50.95;99982.00;4991535;28;1018;-54
2023/12/02 05:51:56;;;;;;;;;;;;;;;15.76;51.42;99984.03;4986121;28;1093;-55
2023/12/02 05:54:22;;;;;;;;;;;;;;;17.14;48.03;99977.31;4985031;28;1910;-54
2023/12/02 05:56:48;;;;;;;;;;;;;;;16.55;49.24;99983.00;4998239;28;1056;-58
2023/12/02 05:59:13;;;;;;;;;;;;;;;16.13;50.68;99979.06;4997141;28;1056;-55
2023/12/02 06:01:39;;;;;;;;;;;;;;;15.92;51.10;99987.47;4978631;28;969;-55
2023/12/02 06:04:04;;;;;;;;;;;;;;;15.73;51.56;99988.16;4978310;28;1429;-58
2023/12/02 06:06:30;;;;;;;;;;;;;;;15.62;51.73;99994.84;4985589;28;1052;-53
2023/12/02 06:08:55;;;;;;;;;;;;;;;16.43;50.08;99986.16;4984477;28;1191;-54
2023/12/02 06:11:21;;;;;;;;;;;;;;;17.14;48.01;99980.06;4990105;28;1234;-54
2023/12/02 06:13:46;;;;;;;;;;;;;;;16.31;50.40;99988.47;4982988;28;920;-57
2023/12/02 06:16:12;;;;;;;;;;;;;;;15.95;51.35;99992.41;4977999;28;1968;-57
2023/12/02 06:18:38;;;;;;;;;;;;;;;15.76;51.87;100000.50;4979287;28;1032;-52
2023/12/02 06:21:03;;;;;;;;;;;;;;;16.77;49.64;99994.28;4989993;28;1144;-53
2023/12/02 06:23:29;;;;;;;;;;;;;;;16.92;48.79;99996.00;4991391;28;1139;-57
2023/12/02 06:25:54;;;;;;;;;;;;;;;16.21;50.80;99994.91;4978028;28;1016;-57
2023/12/02 06:28:20;;;;;;;;;;;;;;;15.99;51.49;99998.97;4990663;28;1092;-55
2023/12/02 06:30:45;;;;;;;;;;;;;;;15.78;52.03;99987.31;4977487;28;1113;-57
2023/12/02 06:33:11;;;;;;;;;;;;;;;15.63;52.29;99991.00;4991394;28;1258;-53
2023/12/02 06:35:36;;;;;;;;;;;;;;;16.19;51.00;99986.16;4990221;28;1964;-56
2023/12/02 06:38:02;;;;;;;;;;;;;;;17.17;48.57;99991.28;4996564;28;1078;-57
2023/12/02 06:40:28;;;;;;;;;;;;;;;16.28;50.88;100000.03;4984341;28;1096;-56
2023/12/02 06:42:53;;;;;;;;;;;;;;;15.93;51.72;100005.56;4996281;28;1156;-57
2023/12/02 06:45:19;;;;;;;;;;;;;;;15.81;52.05;100013.34;4984396;28;1048;-55
2023/12/02 06:47:44;;;;;;;;;;;;;;;15.89;52.36;100001.78;4984610;28;1047;-54
2023/12/02 06:50:10;;;;;;;;;;;;;;;17.17;48.97;99998.72;4996821;28;1070;-56
2023/12/02 06:52:36;;;;;;;;;;;;;;;16.35;50.95;99995.84;4996682;28;1041;-57
2023/12/02 06:55:01;;;;;;;;;;;;;;;16.01;52.03;99994.00;4984094;28;1906;-57
2023/12/02 06:57:27;;;;;;;;;;;;;;;15.85;52.07;99997.97;4997013;28;1253;-57
2023/12/02 06:59:52;;;;;;;;;;;;;;;15.69;52.45;100000.81;4982799;28;1159;-53
2023/12/02 07:02:18;;;;;;;;;;;;;;;15.60;52.92;100005.28;4977489;28;1061;-57
2023/12/02 07:04:45;;;;;;;;;;;;;;;16.94;49.92;99990.22;4990321;28;1022;-53
2023/12/02 07:07:11;;;;;;;;;;;;;;;16.73;50.06;100001.47;4989491;28;1139;-56
2023/12/02 07:09:37;;;;;;;;;;;;;;;16.14;51.83;99988.94;4997053;28;1110;-58
2023/12/02 07:12:03;;;;;;;;;;;;;;;15.89;52.34;99993.56;4994548;28;1055;-58
2023/12/02 07:14:28;;;;;;;;;;;;;;;15.80;52.69;99989.81;4977479;28;1977;-58
2023/12/02 07:16:54;;;;;;;;;;;;;;;17.19;49.34;99985.50;4989647;28;1052;-58
2023/12/02 07:19:19;;;;;;;;;;;;;;;16.51;50.85;99996.50;5000226;28;1083;-56
2023/12/02 07:21:45;;;;;;;;;;;;;;;16.07;51.98;100003.81;4989008;28;1251;-59
2023/12/02 07:24:10;;;;;;;;;;;;;;;15.88;52.55;100005.66;4997258;28;1296;-57
2023/12/02 07:26:36;;;;;;;;;;;;;;;16.93;50.11;100005.09;4992984;28;1119;-57
2023/12/02 07:29:02;;;;;;;;;;;;;;;16.65;50.55;100010.34;5000444;28;1110;-57
2023/12/02 07:31:27;;;;;;;;;;;;;;;16.13;51.98;100006.50;4988675;28;1071;-56
2023/12/02 07:33:53;;;;;;;;;;;;;;;15.91;52.44;100007.81;4993795;28;1045;-57
2023/12/02 07:36:18;;;;;;;;;;;;;;;15.76;52.65;99996.94;4990346;28;1910;-57
2023/12/02 07:38:44;;;;;;;;;;;;;;;16.37;51.61;100001.88;4993935;28;1563;-55
2023/12/02 07:41:09;;;;;;;;;;;;;;;16.76;50.54;100011.03;4993577;28;1069;-57
2023/12/02 07:43:35;;;;;;;;;;;;;;;16.14;51.99;100005.41;4986865;28;1120;-57
2023/12/02 07:46:00;;;;;;;;;;;;;;;15.92;52.85;100014.91;4988345;28;1128;-58
2023/12/02 07:48:26;;;;;;;;;;;;;;;15.78;52.91;100013.91;4983049;28;1063;-56
2023/12/02 07:50:51;;;;;;;;;;;;;;;15.65;53.06;99996.19;4988116;28;1028;-55
2023/12/02 07:53:17;;;;;;;;;;;;;;;15.52;53.45;99989.44;4991839;28;1124;-56
2023/12/02 07:55:42;;;;;;;;;;;;;;;16.41;51.89;99985.63;4993955;28;1910;-56
2023/12/02 07:58:08;;;;;;;;;;;;;;;16.89;50.45;99987.56;4993056;28;1097;-54
2023/12/02 08:00:34;;;;;;;;;;;;;;;16.18;52.25;99998.22;4983286;28;1116;-57
2023/12/02 08:02:59;;;;;;;;;;;;;;;15.90;52.91;100001.47;4999703;28;1524;-54
2023/12/02 08:05:25;;;;;;;;;;;;;;;15.72;53.26;99999.41;4981002;28;1091;-51
2023/12/02 08:07:51;;;;;;;;;;;;;;;16.30;52.27;99997.81;4992730;28;1038;-55
2023/12/02 08:10:16;;;;;;;;;;;;;;;16.99;50.47;99995.66;4993907;28;1078;-54
2023/12/02 08:12:42;;;;;;;;;;;;;;;16.21;52.20;99983.91;4989087;28;1041;-53
2023/12/02 08:15:08;;;;;;;;;;;;;;;15.90;53.26;99981.47;4993128;28;1903;-52
2023/12/02 08:17:33;;;;;;;;;;;;;;;15.82;53.47;99982.09;4992727;28;1100;-52
2023/12/02 08:19:59;;;;;;;;;;;;;;;16.76;51.47;99989.88;4993575;28;1098;-49
2023/12/02 08:22:25;;;;;;;;;;;;;;;17.04;50.31;99984.59;4992311;28;1050;-55
2023/12/02 08:24:51;;;;;;;;;;;;;;;16.33;52.43;99976.13;4982708;28;1114;-54
2023/12/02 08:27:17;;;;;;;;;;;;;;;16.07;53.01;99987.38;4992147;28;1088;-56
2023/12/02 08:29:42;;;;;;;;;;;;;;;15.88;53.50;100003.72;4998978;28;1119;-52
2023/12/02 08:32:08;;;;;;;;;;;;;;;15.78;53.79;100005.69;4989901;28;1055;-53
2023/12/02 08:34:33;;;;;;;;;;;;;;;15.69;53.79;100003.56;4992853;28;1914;-53
2023/12/02 08:36:59;;;;;;;;;;;;;;;16.24;53.09;99988.81;4980116;28;1056;-53
2023/12/02 08:39:24;;;;;;;;;;;;;;;17.43;50.00;99993.66;4991301;28;1286;-50
2023/12/02 08:41:50;;;;;;;;;;;;;;;16.62;52.03;99988.13;4985905;28;1211;-54
2023/12/02 08:44:16;;;;;;;;;;;;;;;16.13;53.13;99971.69;4999118;28;1119;-54
2023/12/02 08:46:41;;;;;;;;;;;;;;;15.97;53.30;99981.16;4980896;28;1096;-51
2023/12/02 08:49:07;;;;;;;;;;;;;;;15.87;53.85;99973.84;4990829;28;1171;-54
2023/12/02 08:51:32;;;;;;;;;;;;;;;17.01;51.20;99976.97;4985579;28;1035;-56
2023/12/02 08:54:01;;;;;;;;;;;;;;;16.76;51.62;99973.41;4987866;28;1039;-55
2023/12/02 08:56:27;;;;;;;;;;;;;;;16.22;52.88;99978.16;4979063;28;1969;-55
2023/12/02 08:58:52;;;;;;;;;;;;;;;16.03;53.47;99967.13;4990972;28;1247;-53
2023/12/02 09:01:19;;;;;;;;;;;;;;;15.88;53.83;99970.00;4998323;28;1080;-53
2023/12/02 09:03:44;;;;;;;;;;;;;;;15.79;54.09;99978.00;4987179;28;1067;-55
2023/12/02 09:06:10;;;;;;;;;;;;;;;15.72;54.27;99967.38;4996934;28;1073;-57
2023/12/02 09:08:35;;;;;;;;;;;;;;;17.03;51.42;99950.00;4998586;28;1052;-54
2023/12/02 09:11:02;;;;;;;;;;;;;;;16.77;51.71;99944.00;4993267;28;1032;-56
2023/12/02 09:13:27;;;;;;;;;;;;;;;16.23;53.23;99946.06;4985517;28;1123;-52
2023/12/02 09:15:53;;;;;;;;;;;;;;;16.00;53.70;99950.41;4978649;28;1982;-54
2023/12/02 09:18:26;;;;;;;;;;;;;;;15.89;53.88;99949.69;4990638;28;1091;-55
2023/12/02 09:20:53;;;;;;;;;;;;;;;16.38;53.23;99943.13;4979208;28;1148;-53
2023/12/02 09:23:20;;;;;;;;;;;;;;;17.02;51.30;99937.38;4991780;28;903;-58
2023/12/02 09:25:45;;;;;;;;;;;;;;;16.35;52.98;99951.94;4979310;28;1008;-57
2023/12/02 09:28:14;;;;;;;;;;;;;;;16.05;53.98;99950.38;4991641;28;1179;-52
2023/12/02 09:30:40;;;;;;;;;;;;;;;15.91;54.14;99952.97;4998498;28;1060;-52
2023/12/02 09:33:06;;;;;;;;;;;;;;;15.85;54.16;99963.16;4985289;28;1158;-51
2023/12/02 09:35:31;;;;;;;;;;;;;;;15.74;54.38;99961.59;4997999;28;1976;-56
2023/12/02 09:37:57;;;;;;;;;;;;;;;17.01;51.77;99952.25;4988734;28;1083;-53
2023/12/02 09:40:40;;;;;;;;;;;;;;;16.77;52.35;99946.75;4997100;28;1014;-53
2023/12/02 09:43:06;;;;;;;;;;;;;;;16.19;53.60;99942.28;4984823;28;1539;-52
2023/12/02 09:45:38;;;;;;;;;;;;;;;15.99;53.99;99944.13;4990226;28;1130;-52
2023/12/02 09:48:13;;;;;;;;;;;;;;;15.85;54.30;99929.44;4995537;28;1084;-55
2023/12/02 09:51:08;;;;;;;;;;;;;;;16.23;54.07;99915.88;4995528;28;834;-55
2023/12/02 09:53:44;;;;;;;;;;;;;;;17.07;51.44;99896.13;4950475;28;1220;-50
2023/12/02 09:56:15;;;;;;;;;;;;;;;16.37;53.35;99902.28;4994942;28;1968;-51
2023/12/02 09:58:41;;;;;;;;;;;;;;;16.11;54.21;99901.75;5002724;28;1191;-56
2023/12/02 10:01:25;;;;;;;;;;;;;;;15.94;54.35;99905.78;4984731;28;1167;-52
2023/12/02 10:04:00;;;;;;;;;;;;;;;15.82;54.56;99897.13;4983647;28;1195;-56
2023/12/02 10:06:44;;;;;;;;;;;;;;;15.69;54.73;99899.41;4966445;28;1095;-56
2023/12/02 10:09:10;;;;;;;;;;;;;;;16.11;54.34;99907.25;4990918;28;1219;-54
2023/12/02 10:11:41;;;;;;;;;;;;;;;17.30;51.42;99915.53;4988184;28;1203;-53
2023/12/02 10:14:13;;;;;;;;;;;;;;;16.46;53.35;99908.72;4982158;28;1040;-57
2023/12/02 10:16:42;;;;;;;;;;;;;;;16.13;54.15;99905.84;4989386;28;1976;-57
2023/12/02 10:19:12;;;;;;;;;;;;;;;15.95;54.63;99904.66;4992577;28;1096;-57
2023/12/02 10:21:37;;;;;;;;;;;;;;;15.77;54.85;99899.88;4989922;28;1068;-56
2023/12/02 10:24:07;;;;;;;;;;;;;;;15.71;55.03;99907.34;4995740;28;1035;-52
2023/12/02 10:26:53;;;;;;;;;;;;;;;16.66;53.49;99895.84;4993539;28;1083;-52
2023/12/02 10:29:39;;;;;;;;;;;;;;;16.72;53.04;99900.19;4977442;28;1237;-55
2023/12/02 10:32:07;;;;;;;;;;;;;;;16.15;54.51;99902.81;4977508;28;1416;-51
2023/12/02 10:34:36;;;;;;;;;;;;;;;15.96;54.80;99894.50;4989326;28;1977;-55
2023/12/02 10:37:02;;;;;;;;;;;;;;;15.79;55.08;99893.03;4979455;28;1219;-56
2023/12/02 10:39:30;;;;;;;;;;;;;;;15.90;54.88;99885.53;4993469;28;851;-58
2023/12/02 10:41:58;;;;;;;;;;;;;;;17.24;51.73;99873.59;4994982;28;1171;-53
2023/12/02 10:44:23;;;;;;;;;;;;;;;16.56;53.67;99869.38;4984349;28;1079;-56
2023/12/02 10:46:49;;;;;;;;;;;;;;;16.16;54.52;99877.84;5004856;28;1040;-55
2023/12/02 10:49:14;;;;;;;;;;;;;;;15.96;54.71;99873.38;4976598;28;1095;-56
2023/12/02 10:51:41;;;;;;;;;;;;;;;15.81;54.98;99868.06;5008068;28;1127;-55
2023/12/02 10:54:06;;;;;;;;;;;;;;;15.73;55.15;99873.06;4995395;28;1444;-53
2023/12/02 10:56:35;;;;;;;;;;;;;;;15.71;55.05;99874.44;4982125;28;1986;-56
2023/12/02 10:59:00;;;;;;;;;;;;;;;17.04;52.71;99863.75;4982160;28;1125;-55
2023/12/02 11:01:31;;;;;;;;;;;;;;;16.84;53.00;99853.06;4994735;28;1133;-57
2023/12/02 11:04:08;;;;;;;;;;;;;;;16.23;54.36;99856.34;4975782;28;1275;-57
2023/12/02 11:06:37;;;;;;;;;;;;;;;15.99;54.85;99847.31;4990805;28;974;-58
2023/12/02 11:09:16;;;;;;;;;;;;;;;15.87;55.00;99845.78;4980601;28;1250;-57
2023/12/02 11:11:45;;;;;;;;;;;;;;;16.96;53.18;99841.63;4975363;28;1044;-56
2023/12/02 11:14:20;;;;;;;;;;;;;;;16.60;53.61;99856.69;4990183;28;1168;-52
2023/12/02 11:16:51;;;;;;;;;;;;;;;16.19;54.76;99860.78;4976255;28;1977;-52
2023/12/02 11:19:20;;;;;;;;;;;;;;;15.94;55.23;99866.59;4976372;28;1144;-49
2023/12/02 11:22:00;;;;;;;;;;;;;;;15.85;55.26;99861.72;4976748;28;1083;-50
2023/12/02 11:24:38;;;;;;;;;;;;;;;15.72;55.22;99874.19;4987461;28;1145;-54
2023/12/02 11:27:06;;;;;;;;;;;;;;;16.34;54.52;99884.47;4991574;28;1040;-54
2023/12/02 11:29:35;;;;;;;;;;;;;;;17.21;52.09;99874.19;4985008;28;1087;-52
2023/12/02 11:32:06;;;;;;;;;;;;;;;16.38;54.60;99866.31;4989397;28;1180;-54
2023/12/02 11:34:38;;;;;;;;;;;;;;;16.10;54.96;99872.69;4975946;28;1981;-55
2023/12/02 11:37:22;;;;;;;;;;;;;;;15.92;55.13;99866.84;4977094;28;1025;-54
2023/12/02 11:39:47;;;;;;;;;;;;;;;15.84;55.41;99851.06;4989206;28;858;-57
2023/12/02 11:42:17;;;;;;;;;;;;;;;17.08;52.79;99851.06;4940110;28;1264876;-55
2023/12/02 11:44:59;;;;;;;;;;;;;;;16.39;54.39;99847.91;4981536;28;1150;-53
2023/12/02 11:47:43;;;;;;;;;;;;;;;15.99;55.22;99828.13;4977046;28;1084;-54
2023/12/02 11:50:18;;;;;;;;;;;;;;;15.82;55.39;99823.09;4993607;28;1076;-53
2023/12/02 11:52:57;;;;;;;;;;;;;;;15.77;55.43;99837.66;4990603;28;1132;-54
2023/12/02 11:55:27;;;;;;;;;;;;;;;16.48;54.78;99837.09;4994844;28;1975;-53
2023/12/02 11:58:03;;;;;;;;;;;;;;;17.05;52.99;99824.16;4992931;28;1067;-51
2023/12/02 12:00:32;;;;;;;;;;;;;;;16.29;54.69;99810.47;4991369;28;1231;-52
2023/12/02 12:03:03;;;;;;;;;;;;;;;16.04;55.44;99798.69;5001854;28;1205;-52
2023/12/02 12:05:33;;;;;;;;;;;;;;;15.86;55.30;99785.78;4992172;28;1059;-56
2023/12/02 12:08:39;;;;;;;;;;;;;;;17.04;53.41;99797.00;4991908;28;1130;-50
2023/12/02 12:11:05;;;;;;;;;;;;;;;16.60;54.02;99788.06;4990773;28;1228;-55
2023/12/02 12:13:30;;;;;;;;;;;;;;;16.24;54.87;99788.56;4973319;28;1137;-54
2023/12/02 12:15:56;;;;;;;;;;;;;;;16.04;55.13;99785.00;4972994;28;1914;-54
2023/12/02 12:18:22;;;;;;;;;;;;;;;15.90;55.28;99771.19;4999478;28;1547;-53
2023/12/02 12:20:52;;;;;;;;;;;;;;;15.85;55.07;99770.44;4994512;28;1076;-56
2023/12/02 12:23:18;;;;;;;;;;;;;;;15.77;55.15;99774.63;5006099;28;1036;-54
2023/12/02 12:25:43;;;;;;;;;;;;;;;16.52;54.77;99775.00;4979586;28;1171;-54
2023/12/02 12:28:09;;;;;;;;;;;;;;;17.31;52.79;99784.47;4981152;28;1298;-52
2023/12/02 12:31:01;;;;;;;;;;;;;;;16.46;54.83;99787.19;4998659;28;1077;-56
2023/12/02 12:33:27;;;;;;;;;;;;;;;16.17;55.05;99815.56;4994180;28;1097;-54
2023/12/02 12:35:52;;;;;;;;;;;;;;;15.96;55.54;99817.75;5003559;28;1910;-55
2023/12/02 12:38:18;;;;;;;;;;;;;;;15.82;55.49;99823.94;4998701;28;1150;-56
2023/12/02 12:40:44;;;;;;;;;;;;;;;15.74;55.23;99822.63;4987036;28;1333;-54
2023/12/02 12:43:12;;;;;;;;;;;;;;;16.49;54.68;99814.03;4985151;28;1177;-53
2023/12/02 12:45:38;;;;;;;;;;;;;;;17.25;52.83;99838.69;4998873;28;1152;-57
2023/12/02 12:48:04;;;;;;;;;;;;;;;16.42;54.98;99837.19;4985505;28;1092;-53
2023/12/02 12:50:33;;;;;;;;;;;;;;;16.16;55.21;99827.63;4989999;28;1067;-53
2023/12/02 12:53:02;;;;;;;;;;;;;;;15.97;55.23;99830.34;4995322;28;1023;-54